sensor_id;sensor_type;location;lat;lon;timestamp;P1;durP1;ratioP1;P2;durP2;ratioP2
14203;SDS011;7185;51.854;6.622;2022-07-23T00:01:48;7.57;;;4.55;;
14203;SDS011;7185;51.854;6.622;2022-07-23T00:04:21;8.13;;;4.80;;
14203;SDS011;7185;51.854;6.622;2022-07-23T00:06:53;8.73;;;4.13;;
14203;SDS011;7185;51.854;6.622;2022-07-23T00:09:24;10.77;;;5.10;;
14203;SDS011;7185;51.854;6.622;2022-07-23T00:11:56;5.93;;;4.32;;
14203;SDS011;7185;51.854;6.622;2022-07-23T00:14:28;6.78;;;4.05;;
14203;SDS011;7185;51.854;6.622;2022-07-23T00:17:01;7.97;;;4.78;;
14203;SDS011;7185;51.854;6.622;2022-07-23T00:19:32;6.63;;;4.43;;
14203;SDS011;7185;51.854;6.622;2022-07-23T00:22:04;8.40;;;4.88;;
14203;SDS011;7185;51.854;6.622;2022-07-23T00:24:36;8.30;;;4.97;;
14203;SDS011;7185;51.854;6.622;2022-07-23T00:27:07;8.30;;;4.60;;
14203;SDS011;7185;51.854;6.622;2022-07-23T00:29:39;8.55;;;4.82;;
14203;SDS011;7185;51.854;6.622;2022-07-23T00:32:12;7.35;;;4.70;;
14203;SDS011;7185;51.854;6.622;2022-07-23T00:34:44;8.98;;;4.97;;
14203;SDS011;7185;51.854;6.622;2022-07-23T00:37:16;7.00;;;4.68;;
14203;SDS011;7185;51.854;6.622;2022-07-23T00:39:47;7.47;;;4.90;;
14203;SDS011;7185;51.854;6.622;2022-07-23T00:42:19;9.35;;;5.10;;
14203;SDS011;7185;51.854;6.622;2022-07-23T00:44:50;10.05;;;4.97;;
14203;SDS011;7185;51.854;6.622;2022-07-23T00:47:23;7.07;;;4.20;;
14203;SDS011;7185;51.854;6.622;2022-07-23T00:49:56;7.72;;;4.80;;
14203;SDS011;7185;51.854;6.622;2022-07-23T00:52:27;7.65;;;4.65;;
14203;SDS011;7185;51.854;6.622;2022-07-23T00:54:59;8.93;;;5.05;;
14203;SDS011;7185;51.854;6.622;2022-07-23T00:57:31;7.18;;;5.22;;
14203;SDS011;7185;51.854;6.622;2022-07-23T01:00:03;9.55;;;5.25;;
14203;SDS011;7185;51.854;6.622;2022-07-23T01:02:37;7.35;;;4.70;;
14203;SDS011;7185;51.854;6.622;2022-07-23T01:05:09;8.35;;;4.78;;
14203;SDS011;7185;51.854;6.622;2022-07-23T01:07:41;7.70;;;5.25;;
14203;SDS011;7185;51.854;6.622;2022-07-23T01:10:13;7.63;;;5.60;;
14203;SDS011;7185;51.854;6.622;2022-07-23T01:13:03;8.40;;;5.28;;
14203;SDS011;7185;51.854;6.622;2022-07-23T01:15:37;8.00;;;5.50;;
14203;SDS011;7185;51.854;6.622;2022-07-23T01:18:11;8.43;;;5.55;;
14203;SDS011;7185;51.854;6.622;2022-07-23T01:20:43;8.57;;;5.55;;
14203;SDS011;7185;51.854;6.622;2022-07-23T01:23:16;9.82;;;5.60;;
14203;SDS011;7185;51.854;6.622;2022-07-23T01:25:48;8.93;;;5.55;;
14203;SDS011;7185;51.854;6.622;2022-07-23T01:28:20;11.02;;;5.65;;
14203;SDS011;7185;51.854;6.622;2022-07-23T01:30:52;9.70;;;6.38;;
14203;SDS011;7185;51.854;6.622;2022-07-23T01:33:24;9.95;;;5.80;;
14203;SDS011;7185;51.854;6.622;2022-07-23T01:35:56;7.22;;;5.63;;
14203;SDS011;7185;51.854;6.622;2022-07-23T01:38:29;8.95;;;6.18;;
14203;SDS011;7185;51.854;6.622;2022-07-23T01:41:01;9.00;;;6.00;;
14203;SDS011;7185;51.854;6.622;2022-07-23T01:43:32;10.40;;;6.15;;
14203;SDS011;7185;51.854;6.622;2022-07-23T01:46:04;9.45;;;5.97;;
14203;SDS011;7185;51.854;6.622;2022-07-23T01:48:36;10.85;;;6.05;;
14203;SDS011;7185;51.854;6.622;2022-07-23T01:51:07;7.50;;;5.78;;
14203;SDS011;7185;51.854;6.622;2022-07-23T01:53:40;8.02;;;6.35;;
14203;SDS011;7185;51.854;6.622;2022-07-23T01:56:12;8.57;;;6.13;;
14203;SDS011;7185;51.854;6.622;2022-07-23T01:58:45;9.98;;;5.80;;
14203;SDS011;7185;51.854;6.622;2022-07-23T02:01:16;9.10;;;6.53;;
14203;SDS011;7185;51.854;6.622;2022-07-23T02:03:48;11.32;;;6.10;;
14203;SDS011;7185;51.854;6.622;2022-07-23T02:06:20;8.35;;;5.95;;
14203;SDS011;7185;51.854;6.622;2022-07-23T02:08:53;10.77;;;6.85;;
14203;SDS011;7185;51.854;6.622;2022-07-23T02:11:24;9.27;;;6.60;;
14203;SDS011;7185;51.854;6.622;2022-07-23T02:13:56;7.78;;;6.00;;
14203;SDS011;7185;51.854;6.622;2022-07-23T02:16:27;12.27;;;6.65;;
14203;SDS011;7185;51.854;6.622;2022-07-23T02:18:59;10.45;;;6.38;;
14203;SDS011;7185;51.854;6.622;2022-07-23T02:21:31;8.00;;;5.75;;
14203;SDS011;7185;51.854;6.622;2022-07-23T02:24:04;8.57;;;5.88;;
14203;SDS011;7185;51.854;6.622;2022-07-23T02:26:36;10.38;;;6.28;;
14203;SDS011;7185;51.854;6.622;2022-07-23T02:29:08;11.52;;;6.88;;
14203;SDS011;7185;51.854;6.622;2022-07-23T02:31:40;10.80;;;6.80;;
14203;SDS011;7185;51.854;6.622;2022-07-23T02:34:12;12.70;;;6.93;;
14203;SDS011;7185;51.854;6.622;2022-07-23T02:36:43;10.85;;;6.88;;
14203;SDS011;7185;51.854;6.622;2022-07-23T02:39:17;11.45;;;6.35;;
14203;SDS011;7185;51.854;6.622;2022-07-23T02:41:48;11.98;;;6.43;;
14203;SDS011;7185;51.854;6.622;2022-07-23T02:44:20;11.90;;;6.43;;
14203;SDS011;7185;51.854;6.622;2022-07-23T02:46:52;14.95;;;6.68;;
14203;SDS011;7185;51.854;6.622;2022-07-23T02:49:23;11.02;;;7.03;;
14203;SDS011;7185;51.854;6.622;2022-07-23T02:51:55;10.20;;;6.72;;
14203;SDS011;7185;51.854;6.622;2022-07-23T02:54:28;8.68;;;6.22;;
14203;SDS011;7185;51.854;6.622;2022-07-23T02:57:00;10.05;;;6.57;;
14203;SDS011;7185;51.854;6.622;2022-07-23T02:59:31;7.97;;;6.10;;
14203;SDS011;7185;51.854;6.622;2022-07-23T03:02:03;11.05;;;7.32;;
14203;SDS011;7185;51.854;6.622;2022-07-23T03:04:35;9.73;;;6.90;;
14203;SDS011;7185;51.854;6.622;2022-07-23T03:07:06;9.80;;;6.80;;
14203;SDS011;7185;51.854;6.622;2022-07-23T03:09:39;11.85;;;7.28;;
14203;SDS011;7185;51.854;6.622;2022-07-23T03:12:11;12.88;;;7.20;;
14203;SDS011;7185;51.854;6.622;2022-07-23T03:14:43;9.25;;;6.38;;
14203;SDS011;7185;51.854;6.622;2022-07-23T03:17:14;9.10;;;6.32;;
14203;SDS011;7185;51.854;6.622;2022-07-23T03:19:46;10.57;;;7.53;;
14203;SDS011;7185;51.854;6.622;2022-07-23T03:22:18;11.05;;;6.70;;
14203;SDS011;7185;51.854;6.622;2022-07-23T03:24:51;9.93;;;6.97;;
14203;SDS011;7185;51.854;6.622;2022-07-23T03:27:25;9.90;;;7.13;;
14203;SDS011;7185;51.854;6.622;2022-07-23T03:29:58;13.70;;;8.27;;
14203;SDS011;7185;51.854;6.622;2022-07-23T03:32:30;12.65;;;7.57;;
14203;SDS011;7185;51.854;6.622;2022-07-23T03:35:02;12.85;;;7.50;;
14203;SDS011;7185;51.854;6.622;2022-07-23T03:37:34;9.07;;;6.35;;
14203;SDS011;7185;51.854;6.622;2022-07-23T03:40:08;10.93;;;6.75;;
14203;SDS011;7185;51.854;6.622;2022-07-23T03:42:40;9.20;;;6.88;;
14203;SDS011;7185;51.854;6.622;2022-07-23T03:45:13;9.95;;;7.40;;
14203;SDS011;7185;51.854;6.622;2022-07-23T03:47:44;12.35;;;7.75;;
14203;SDS011;7185;51.854;6.622;2022-07-23T03:50:16;11.63;;;7.20;;
14203;SDS011;7185;51.854;6.622;2022-07-23T03:52:48;10.98;;;7.68;;
14203;SDS011;7185;51.854;6.622;2022-07-23T03:55:21;10.93;;;7.78;;
14203;SDS011;7185;51.854;6.622;2022-07-23T03:57:53;11.02;;;7.82;;
14203;SDS011;7185;51.854;6.622;2022-07-23T04:00:24;9.73;;;7.28;;
14203;SDS011;7185;51.854;6.622;2022-07-23T04:02:56;12.00;;;7.57;;
14203;SDS011;7185;51.854;6.622;2022-07-23T04:05:28;10.82;;;7.30;;
14203;SDS011;7185;51.854;6.622;2022-07-23T04:07:59;13.52;;;8.45;;
14203;SDS011;7185;51.854;6.622;2022-07-23T04:10:32;11.85;;;7.68;;
14203;SDS011;7185;51.854;6.622;2022-07-23T04:13:04;14.20;;;8.50;;
14203;SDS011;7185;51.854;6.622;2022-07-23T04:15:36;13.02;;;7.95;;
14203;SDS011;7185;51.854;6.622;2022-07-23T04:18:07;12.48;;;8.35;;
14203;SDS011;7185;51.854;6.622;2022-07-23T04:20:39;14.40;;;8.27;;
14203;SDS011;7185;51.854;6.622;2022-07-23T04:23:11;12.27;;;8.75;;
14203;SDS011;7185;51.854;6.622;2022-07-23T04:25:44;14.30;;;9.30;;
14203;SDS011;7185;51.854;6.622;2022-07-23T04:28:16;12.48;;;8.18;;
14203;SDS011;7185;51.854;6.622;2022-07-23T04:30:48;13.82;;;8.82;;
14203;SDS011;7185;51.854;6.622;2022-07-23T04:33:19;12.98;;;8.50;;
14203;SDS011;7185;51.854;6.622;2022-07-23T04:35:51;13.50;;;8.75;;
14203;SDS011;7185;51.854;6.622;2022-07-23T04:38:23;12.10;;;8.63;;
14203;SDS011;7185;51.854;6.622;2022-07-23T04:40:56;11.73;;;8.38;;
14203;SDS011;7185;51.854;6.622;2022-07-23T04:43:27;12.57;;;8.98;;
14203;SDS011;7185;51.854;6.622;2022-07-23T04:45:59;17.50;;;9.27;;
14203;SDS011;7185;51.854;6.622;2022-07-23T04:48:31;12.48;;;8.70;;
14203;SDS011;7185;51.854;6.622;2022-07-23T04:51:02;13.98;;;8.93;;
14203;SDS011;7185;51.854;6.622;2022-07-23T04:53:36;13.55;;;8.82;;
14203;SDS011;7185;51.854;6.622;2022-07-23T04:56:09;12.23;;;8.43;;
14203;SDS011;7185;51.854;6.622;2022-07-23T04:58:41;12.82;;;8.65;;
14203;SDS011;7185;51.854;6.622;2022-07-23T05:01:13;12.75;;;8.63;;
14203;SDS011;7185;51.854;6.622;2022-07-23T05:03:44;14.82;;;9.27;;
14203;SDS011;7185;51.854;6.622;2022-07-23T05:06:18;12.63;;;8.90;;
14203;SDS011;7185;51.854;6.622;2022-07-23T05:08:50;11.90;;;8.55;;
14203;SDS011;7185;51.854;6.622;2022-07-23T05:11:23;12.77;;;8.82;;
14203;SDS011;7185;51.854;6.622;2022-07-23T05:13:54;13.00;;;8.52;;
14203;SDS011;7185;51.854;6.622;2022-07-23T05:16:26;14.07;;;7.80;;
14203;SDS011;7185;51.854;6.622;2022-07-23T05:18:58;12.90;;;8.80;;
14203;SDS011;7185;51.854;6.622;2022-07-23T05:21:29;13.25;;;8.50;;
14203;SDS011;7185;51.854;6.622;2022-07-23T05:24:01;12.25;;;9.18;;
14203;SDS011;7185;51.854;6.622;2022-07-23T05:26:34;12.43;;;8.70;;
14203;SDS011;7185;51.854;6.622;2022-07-23T05:29:06;12.38;;;8.50;;
14203;SDS011;7185;51.854;6.622;2022-07-23T05:31:37;11.82;;;7.55;;
14203;SDS011;7185;51.854;6.622;2022-07-23T05:34:09;11.43;;;8.00;;
14203;SDS011;7185;51.854;6.622;2022-07-23T05:36:41;10.57;;;7.55;;
14203;SDS011;7185;51.854;6.622;2022-07-23T05:39:12;13.98;;;8.57;;
14203;SDS011;7185;51.854;6.622;2022-07-23T05:41:45;9.80;;;7.38;;
14203;SDS011;7185;51.854;6.622;2022-07-23T05:44:17;11.15;;;7.57;;
14203;SDS011;7185;51.854;6.622;2022-07-23T05:46:49;9.80;;;7.90;;
14203;SDS011;7185;51.854;6.622;2022-07-23T05:49:21;15.00;;;7.93;;
14203;SDS011;7185;51.854;6.622;2022-07-23T05:51:52;14.52;;;7.75;;
14203;SDS011;7185;51.854;6.622;2022-07-23T05:54:24;10.95;;;7.22;;
14203;SDS011;7185;51.854;6.622;2022-07-23T05:56:57;12.50;;;6.80;;
14203;SDS011;7185;51.854;6.622;2022-07-23T05:59:29;13.85;;;7.55;;
14203;SDS011;7185;51.854;6.622;2022-07-23T06:02:00;10.75;;;7.25;;
14203;SDS011;7185;51.854;6.622;2022-07-23T06:04:32;13.02;;;7.38;;
14203;SDS011;7185;51.854;6.622;2022-07-23T06:07:04;9.55;;;6.88;;
14203;SDS011;7185;51.854;6.622;2022-07-23T06:09:36;10.93;;;7.18;;
14203;SDS011;7185;51.854;6.622;2022-07-23T06:12:09;12.18;;;7.13;;
14203;SDS011;7185;51.854;6.622;2022-07-23T06:14:41;11.27;;;7.13;;
14203;SDS011;7185;51.854;6.622;2022-07-23T06:17:12;12.10;;;6.97;;
14203;SDS011;7185;51.854;6.622;2022-07-23T06:19:44;9.18;;;6.72;;
14203;SDS011;7185;51.854;6.622;2022-07-23T06:22:16;10.60;;;6.63;;
14203;SDS011;7185;51.854;6.622;2022-07-23T06:24:47;8.50;;;6.40;;
14203;SDS011;7185;51.854;6.622;2022-07-23T06:27:21;10.30;;;6.13;;
14203;SDS011;7185;51.854;6.622;2022-07-23T06:29:52;8.23;;;6.22;;
14203;SDS011;7185;51.854;6.622;2022-07-23T06:32:24;6.55;;;4.65;;
14203;SDS011;7185;51.854;6.622;2022-07-23T06:34:56;9.35;;;4.88;;
14203;SDS011;7185;51.854;6.622;2022-07-23T06:37:28;6.00;;;4.57;;
14203;SDS011;7185;51.854;6.622;2022-07-23T06:39:59;8.50;;;5.32;;
14203;SDS011;7185;51.854;6.622;2022-07-23T06:42:32;5.70;;;4.25;;
14203;SDS011;7185;51.854;6.622;2022-07-23T06:45:07;6.70;;;4.33;;
14203;SDS011;7185;51.854;6.622;2022-07-23T06:47:39;9.65;;;4.38;;
14203;SDS011;7185;51.854;6.622;2022-07-23T06:50:11;6.55;;;4.20;;
14203;SDS011;7185;51.854;6.622;2022-07-23T06:52:43;7.60;;;4.82;;
14203;SDS011;7185;51.854;6.622;2022-07-23T06:55:15;7.60;;;4.75;;
14203;SDS011;7185;51.854;6.622;2022-07-23T06:57:48;8.52;;;4.45;;
14203;SDS011;7185;51.854;6.622;2022-07-23T07:00:19;8.30;;;4.75;;
14203;SDS011;7185;51.854;6.622;2022-07-23T07:02:53;6.43;;;4.55;;
14203;SDS011;7185;51.854;6.622;2022-07-23T07:05:25;6.10;;;4.40;;
14203;SDS011;7185;51.854;6.622;2022-07-23T07:07:57;6.57;;;4.15;;
14203;SDS011;7185;51.854;6.622;2022-07-23T07:10:29;6.45;;;4.35;;
14203;SDS011;7185;51.854;6.622;2022-07-23T07:13:02;6.25;;;4.28;;
14203;SDS011;7185;51.854;6.622;2022-07-23T07:15:33;10.68;;;5.22;;
14203;SDS011;7185;51.854;6.622;2022-07-23T07:18:05;10.00;;;5.38;;
14203;SDS011;7185;51.854;6.622;2022-07-23T07:20:37;6.88;;;4.53;;
14203;SDS011;7185;51.854;6.622;2022-07-23T07:23:08;9.43;;;4.93;;
14203;SDS011;7185;51.854;6.622;2022-07-23T07:25:40;8.50;;;5.03;;
14203;SDS011;7185;51.854;6.622;2022-07-23T07:28:13;13.93;;;5.35;;
14203;SDS011;7185;51.854;6.622;2022-07-23T07:30:45;7.97;;;5.05;;
14203;SDS011;7185;51.854;6.622;2022-07-23T07:33:16;8.05;;;5.32;;
14203;SDS011;7185;51.854;6.622;2022-07-23T07:35:48;9.85;;;5.60;;
14203;SDS011;7185;51.854;6.622;2022-07-23T07:38:20;5.75;;;3.85;;
14203;SDS011;7185;51.854;6.622;2022-07-23T07:40:51;9.02;;;4.47;;
14203;SDS011;7185;51.854;6.622;2022-07-23T07:43:24;8.98;;;4.47;;
14203;SDS011;7185;51.854;6.622;2022-07-23T07:45:56;7.18;;;4.30;;
14203;SDS011;7185;51.854;6.622;2022-07-23T07:48:30;6.55;;;4.00;;
14203;SDS011;7185;51.854;6.622;2022-07-23T07:51:02;8.82;;;3.40;;
14203;SDS011;7185;51.854;6.622;2022-07-23T07:53:34;8.70;;;3.55;;
14203;SDS011;7185;51.854;6.622;2022-07-23T07:56:06;4.82;;;3.63;;
14203;SDS011;7185;51.854;6.622;2022-07-23T07:58:39;8.25;;;3.28;;
14203;SDS011;7185;51.854;6.622;2022-07-23T08:01:11;7.00;;;3.40;;
14203;SDS011;7185;51.854;6.622;2022-07-23T08:03:43;6.68;;;3.55;;
14203;SDS011;7185;51.854;6.622;2022-07-23T08:06:14;5.40;;;3.78;;
14203;SDS011;7185;51.854;6.622;2022-07-23T08:08:46;6.75;;;4.10;;
14203;SDS011;7185;51.854;6.622;2022-07-23T08:11:17;7.63;;;4.28;;
14203;SDS011;7185;51.854;6.622;2022-07-23T08:13:50;5.55;;;3.35;;
14203;SDS011;7185;51.854;6.622;2022-07-23T08:16:23;7.35;;;4.03;;
14203;SDS011;7185;51.854;6.622;2022-07-23T08:18:55;5.65;;;3.17;;
14203;SDS011;7185;51.854;6.622;2022-07-23T08:21:27;4.55;;;2.92;;
14203;SDS011;7185;51.854;6.622;2022-07-23T08:23:58;4.85;;;2.80;;
14203;SDS011;7185;51.854;6.622;2022-07-23T08:26:30;7.93;;;3.20;;
14203;SDS011;7185;51.854;6.622;2022-07-23T08:29:03;5.30;;;2.85;;
14203;SDS011;7185;51.854;6.622;2022-07-23T08:31:34;4.80;;;2.50;;
14203;SDS011;7185;51.854;6.622;2022-07-23T08:34:06;7.57;;;2.67;;
14203;SDS011;7185;51.854;6.622;2022-07-23T08:36:38;5.75;;;3.10;;
14203;SDS011;7185;51.854;6.622;2022-07-23T08:39:09;6.18;;;2.83;;
14203;SDS011;7185;51.854;6.622;2022-07-23T08:41:41;5.28;;;2.35;;
14203;SDS011;7185;51.854;6.622;2022-07-23T08:44:16;5.97;;;2.65;;
14203;SDS011;7185;51.854;6.622;2022-07-23T08:46:47;4.22;;;2.42;;
14203;SDS011;7185;51.854;6.622;2022-07-23T08:49:19;4.25;;;2.83;;
14203;SDS011;7185;51.854;6.622;2022-07-23T08:51:52;6.82;;;2.53;;
14203;SDS011;7185;51.854;6.622;2022-07-23T08:54:23;7.38;;;2.53;;
14203;SDS011;7185;51.854;6.622;2022-07-23T08:56:55;7.45;;;3.42;;
14203;SDS011;7185;51.854;6.622;2022-07-23T08:59:28;7.60;;;2.95;;
14203;SDS011;7185;51.854;6.622;2022-07-23T09:02:02;5.07;;;2.85;;
14203;SDS011;7185;51.854;6.622;2022-07-23T09:04:33;4.15;;;2.20;;
14203;SDS011;7185;51.854;6.622;2022-07-23T09:07:05;5.95;;;2.65;;
14203;SDS011;7185;51.854;6.622;2022-07-23T09:09:37;3.45;;;2.20;;
14203;SDS011;7185;51.854;6.622;2022-07-23T09:12:09;11.57;;;2.75;;
14203;SDS011;7185;51.854;6.622;2022-07-23T09:14:43;4.95;;;2.08;;
14203;SDS011;7185;51.854;6.622;2022-07-23T09:17:17;8.23;;;2.55;;
14203;SDS011;7185;51.854;6.622;2022-07-23T09:19:49;5.20;;;2.45;;
14203;SDS011;7185;51.854;6.622;2022-07-23T09:22:21;5.13;;;2.38;;
14203;SDS011;7185;51.854;6.622;2022-07-23T09:25:04;4.65;;;2.80;;
14203;SDS011;7185;51.854;6.622;2022-07-23T09:27:48;3.95;;;2.50;;
14203;SDS011;7185;51.854;6.622;2022-07-23T09:30:26;3.58;;;2.40;;
14203;SDS011;7185;51.854;6.622;2022-07-23T09:33:08;4.95;;;2.15;;
14203;SDS011;7185;51.854;6.622;2022-07-23T09:35:45;7.90;;;2.38;;
14203;SDS011;7185;51.854;6.622;2022-07-23T09:38:19;4.20;;;2.40;;
14203;SDS011;7185;51.854;6.622;2022-07-23T09:41:05;5.90;;;2.50;;
14203;SDS011;7185;51.854;6.622;2022-07-23T09:43:38;5.10;;;2.20;;
14203;SDS011;7185;51.854;6.622;2022-07-23T09:46:18;4.20;;;2.20;;
14203;SDS011;7185;51.854;6.622;2022-07-23T09:48:50;5.00;;;2.35;;
14203;SDS011;7185;51.854;6.622;2022-07-23T09:51:23;3.88;;;2.28;;
14203;SDS011;7185;51.854;6.622;2022-07-23T09:54:02;5.35;;;2.40;;
14203;SDS011;7185;51.854;6.622;2022-07-23T09:56:33;4.65;;;2.38;;
14203;SDS011;7185;51.854;6.622;2022-07-23T09:59:08;4.90;;;2.03;;
14203;SDS011;7185;51.854;6.622;2022-07-23T10:01:42;4.75;;;1.98;;
14203;SDS011;7185;51.854;6.622;2022-07-23T10:04:14;3.55;;;1.70;;
14203;SDS011;7185;51.854;6.622;2022-07-23T10:06:47;3.33;;;1.70;;
14203;SDS011;7185;51.854;6.622;2022-07-23T10:09:23;3.72;;;1.90;;
14203;SDS011;7185;51.854;6.622;2022-07-23T10:11:57;3.60;;;2.05;;
14203;SDS011;7185;51.854;6.622;2022-07-23T10:14:46;4.10;;;2.17;;
14203;SDS011;7185;51.854;6.622;2022-07-23T10:17:20;6.80;;;2.00;;
14203;SDS011;7185;51.854;6.622;2022-07-23T10:19:51;6.25;;;1.60;;
14203;SDS011;7185;51.854;6.622;2022-07-23T10:22:24;3.55;;;1.70;;
14203;SDS011;7185;51.854;6.622;2022-07-23T10:25:00;5.28;;;1.92;;
14203;SDS011;7185;51.854;6.622;2022-07-23T10:27:53;6.57;;;1.85;;
14203;SDS011;7185;51.854;6.622;2022-07-23T10:30:36;4.88;;;1.80;;
14203;SDS011;7185;51.854;6.622;2022-07-23T10:33:20;5.97;;;1.90;;
14203;SDS011;7185;51.854;6.622;2022-07-23T10:36:02;3.45;;;1.70;;
14203;SDS011;7185;51.854;6.622;2022-07-23T10:38:47;4.30;;;1.30;;
14203;SDS011;7185;51.854;6.622;2022-07-23T10:41:31;3.50;;;1.70;;
14203;SDS011;7185;51.854;6.622;2022-07-23T10:44:07;3.45;;;1.50;;
14203;SDS011;7185;51.854;6.622;2022-07-23T10:46:54;4.63;;;1.70;;
14203;SDS011;7185;51.854;6.622;2022-07-23T10:49:34;6.35;;;2.15;;
14203;SDS011;7185;51.854;6.622;2022-07-23T10:52:16;2.83;;;1.63;;
14203;SDS011;7185;51.854;6.622;2022-07-23T10:54:49;3.47;;;1.90;;
14203;SDS011;7185;51.854;6.622;2022-07-23T10:57:23;5.13;;;1.75;;
14203;SDS011;7185;51.854;6.622;2022-07-23T11:00:09;3.75;;;1.88;;
14203;SDS011;7185;51.854;6.622;2022-07-23T11:02:45;5.22;;;2.15;;
14203;SDS011;7185;51.854;6.622;2022-07-23T11:05:20;2.70;;;2.00;;
14203;SDS011;7185;51.854;6.622;2022-07-23T11:08:12;4.53;;;1.95;;
14203;SDS011;7185;51.854;6.622;2022-07-23T11:10:51;6.68;;;1.85;;
14203;SDS011;7185;51.854;6.622;2022-07-23T11:13:29;3.15;;;1.50;;
14203;SDS011;7185;51.854;6.622;2022-07-23T11:16:06;2.80;;;1.75;;
14203;SDS011;7185;51.854;6.622;2022-07-23T11:21:45;3.70;;;2.00;;
14203;SDS011;7185;51.854;6.622;2022-07-23T11:24:21;3.50;;;2.15;;
14203;SDS011;7185;51.854;6.622;2022-07-23T11:26:56;4.57;;;2.00;;
14203;SDS011;7185;51.854;6.622;2022-07-23T11:29:38;3.25;;;1.65;;
14203;SDS011;7185;51.854;6.622;2022-07-23T11:32:18;3.30;;;1.50;;
14203;SDS011;7185;51.854;6.622;2022-07-23T11:34:53;4.10;;;1.90;;
14203;SDS011;7185;51.854;6.622;2022-07-23T11:37:37;2.60;;;1.90;;
14203;SDS011;7185;51.854;6.622;2022-07-23T11:40:10;4.55;;;1.63;;
14203;SDS011;7185;51.854;6.622;2022-07-23T11:42:51;6.20;;;1.90;;
14203;SDS011;7185;51.854;6.622;2022-07-23T11:45:25;4.88;;;1.98;;
14203;SDS011;7185;51.854;6.622;2022-07-23T11:48:01;3.30;;;1.60;;
14203;SDS011;7185;51.854;6.622;2022-07-23T11:50:34;3.80;;;1.90;;
14203;SDS011;7185;51.854;6.622;2022-07-23T11:53:08;7.03;;;2.28;;
14203;SDS011;7185;51.854;6.622;2022-07-23T11:55:39;4.45;;;2.00;;
14203;SDS011;7185;51.854;6.622;2022-07-23T11:58:11;3.75;;;1.80;;
14203;SDS011;7185;51.854;6.622;2022-07-23T12:00:43;7.53;;;1.90;;
14203;SDS011;7185;51.854;6.622;2022-07-23T12:03:14;2.90;;;1.80;;
14203;SDS011;7185;51.854;6.622;2022-07-23T12:05:46;2.53;;;1.60;;
14203;SDS011;7185;51.854;6.622;2022-07-23T12:08:19;3.80;;;1.80;;
14203;SDS011;7185;51.854;6.622;2022-07-23T12:10:51;3.20;;;1.95;;
14203;SDS011;7185;51.854;6.622;2022-07-23T12:13:22;3.22;;;1.50;;
14203;SDS011;7185;51.854;6.622;2022-07-23T12:15:56;4.43;;;1.83;;
14203;SDS011;7185;51.854;6.622;2022-07-23T12:18:28;5.22;;;1.92;;
14203;SDS011;7185;51.854;6.622;2022-07-23T12:21:03;4.90;;;1.98;;
14203;SDS011;7185;51.854;6.622;2022-07-23T12:23:38;3.72;;;2.35;;
14203;SDS011;7185;51.854;6.622;2022-07-23T12:26:10;4.53;;;1.75;;
14203;SDS011;7185;51.854;6.622;2022-07-23T12:28:42;4.90;;;2.00;;
14203;SDS011;7185;51.854;6.622;2022-07-23T12:31:25;5.13;;;2.00;;
14203;SDS011;7185;51.854;6.622;2022-07-23T12:33:57;4.22;;;1.73;;
14203;SDS011;7185;51.854;6.622;2022-07-23T12:36:36;2.95;;;1.50;;
14203;SDS011;7185;51.854;6.622;2022-07-23T12:39:11;2.83;;;1.27;;
14203;SDS011;7185;51.854;6.622;2022-07-23T12:41:50;3.17;;;1.85;;
14203;SDS011;7185;51.854;6.622;2022-07-23T12:44:23;3.35;;;2.13;;
14203;SDS011;7185;51.854;6.622;2022-07-23T12:46:54;3.80;;;1.98;;
14203;SDS011;7185;51.854;6.622;2022-07-23T12:49:26;4.13;;;1.95;;
14203;SDS011;7185;51.854;6.622;2022-07-23T12:51:58;4.63;;;1.95;;
14203;SDS011;7185;51.854;6.622;2022-07-23T12:54:31;4.90;;;1.80;;
14203;SDS011;7185;51.854;6.622;2022-07-23T12:57:02;6.10;;;2.20;;
14203;SDS011;7185;51.854;6.622;2022-07-23T12:59:34;3.47;;;2.00;;
14203;SDS011;7185;51.854;6.622;2022-07-23T13:02:08;5.28;;;2.00;;
14203;SDS011;7185;51.854;6.622;2022-07-23T13:04:40;4.82;;;2.20;;
14203;SDS011;7185;51.854;6.622;2022-07-23T13:07:12;4.70;;;1.80;;
14203;SDS011;7185;51.854;6.622;2022-07-23T13:09:44;3.45;;;1.75;;
14203;SDS011;7185;51.854;6.622;2022-07-23T13:12:16;4.30;;;2.25;;
14203;SDS011;7185;51.854;6.622;2022-07-23T13:14:48;4.00;;;2.05;;
14203;SDS011;7185;51.854;6.622;2022-07-23T13:17:20;4.10;;;1.90;;
14203;SDS011;7185;51.854;6.622;2022-07-23T13:19:52;5.80;;;1.90;;
14203;SDS011;7185;51.854;6.622;2022-07-23T13:22:23;3.72;;;2.00;;
14203;SDS011;7185;51.854;6.622;2022-07-23T13:24:56;3.20;;;2.20;;
14203;SDS011;7185;51.854;6.622;2022-07-23T13:27:28;3.20;;;1.90;;
14203;SDS011;7185;51.854;6.622;2022-07-23T13:29:59;2.10;;;1.42;;
14203;SDS011;7185;51.854;6.622;2022-07-23T13:32:31;3.03;;;2.00;;
14203;SDS011;7185;51.854;6.622;2022-07-23T13:35:03;3.85;;;1.95;;
14203;SDS011;7185;51.854;6.622;2022-07-23T13:37:35;3.28;;;1.60;;
14203;SDS011;7185;51.854;6.622;2022-07-23T13:40:09;4.97;;;2.28;;
14203;SDS011;7185;51.854;6.622;2022-07-23T13:42:41;5.28;;;2.17;;
14203;SDS011;7185;51.854;6.622;2022-07-23T13:45:12;4.05;;;2.00;;
14203;SDS011;7185;51.854;6.622;2022-07-23T13:47:44;3.10;;;1.60;;
14203;SDS011;7185;51.854;6.622;2022-07-23T13:50:16;5.03;;;2.20;;
14203;SDS011;7185;51.854;6.622;2022-07-23T13:52:47;4.38;;;2.10;;
14203;SDS011;7185;51.854;6.622;2022-07-23T13:55:20;7.68;;;2.20;;
14203;SDS011;7185;51.854;6.622;2022-07-23T13:57:52;3.55;;;1.90;;
14203;SDS011;7185;51.854;6.622;2022-07-23T14:00:24;3.90;;;1.80;;
14203;SDS011;7185;51.854;6.622;2022-07-23T14:02:57;4.43;;;1.90;;
14203;SDS011;7185;51.854;6.622;2022-07-23T14:05:29;3.78;;;2.30;;
14203;SDS011;7185;51.854;6.622;2022-07-23T14:08:01;4.18;;;2.30;;
14203;SDS011;7185;51.854;6.622;2022-07-23T14:10:34;3.83;;;2.00;;
14203;SDS011;7185;51.854;6.622;2022-07-23T14:13:06;4.78;;;2.25;;
14203;SDS011;7185;51.854;6.622;2022-07-23T14:15:38;3.65;;;2.20;;
14203;SDS011;7185;51.854;6.622;2022-07-23T14:18:10;3.22;;;2.00;;
14203;SDS011;7185;51.854;6.622;2022-07-23T14:20:42;4.90;;;1.88;;
14203;SDS011;7185;51.854;6.622;2022-07-23T14:23:13;2.92;;;1.88;;
14203;SDS011;7185;51.854;6.622;2022-07-23T14:25:46;4.22;;;2.03;;
14203;SDS011;7185;51.854;6.622;2022-07-23T14:28:18;4.30;;;2.53;;
14203;SDS011;7185;51.854;6.622;2022-07-23T14:30:50;3.72;;;2.08;;
14203;SDS011;7185;51.854;6.622;2022-07-23T14:33:22;4.22;;;2.10;;
14203;SDS011;7185;51.854;6.622;2022-07-23T14:35:53;2.97;;;2.03;;
14203;SDS011;7185;51.854;6.622;2022-07-23T14:38:25;5.25;;;2.25;;
14203;SDS011;7185;51.854;6.622;2022-07-23T14:40:58;4.85;;;2.28;;
14203;SDS011;7185;51.854;6.622;2022-07-23T14:43:29;3.75;;;2.30;;
14203;SDS011;7185;51.854;6.622;2022-07-23T14:46:01;4.72;;;2.10;;
14203;SDS011;7185;51.854;6.622;2022-07-23T14:48:33;4.75;;;2.47;;
14203;SDS011;7185;51.854;6.622;2022-07-23T14:51:04;4.13;;;2.42;;
14203;SDS011;7185;51.854;6.622;2022-07-23T14:53:36;5.65;;;2.20;;
14203;SDS011;7185;51.854;6.622;2022-07-23T14:56:09;6.05;;;2.33;;
14203;SDS011;7185;51.854;6.622;2022-07-23T14:58:41;5.03;;;2.50;;
14203;SDS011;7185;51.854;6.622;2022-07-23T15:01:13;5.25;;;2.67;;
14203;SDS011;7185;51.854;6.622;2022-07-23T15:03:45;4.57;;;2.60;;
14203;SDS011;7185;51.854;6.622;2022-07-23T15:06:16;4.88;;;2.60;;
14203;SDS011;7185;51.854;6.622;2022-07-23T15:08:48;3.72;;;2.30;;
14203;SDS011;7185;51.854;6.622;2022-07-23T15:11:21;3.17;;;1.95;;
14203;SDS011;7185;51.854;6.622;2022-07-23T15:13:53;7.05;;;2.55;;
14203;SDS011;7185;51.854;6.622;2022-07-23T15:16:24;5.57;;;2.25;;
14203;SDS011;7185;51.854;6.622;2022-07-23T15:18:56;3.58;;;2.00;;
14203;SDS011;7185;51.854;6.622;2022-07-23T15:21:28;4.35;;;2.33;;
14203;SDS011;7185;51.854;6.622;2022-07-23T15:24:00;5.30;;;2.63;;
14203;SDS011;7185;51.854;6.622;2022-07-23T15:26:33;3.17;;;1.90;;
14203;SDS011;7185;51.854;6.622;2022-07-23T15:29:05;3.05;;;2.13;;
14203;SDS011;7185;51.854;6.622;2022-07-23T15:31:37;7.75;;;2.40;;
14203;SDS011;7185;51.854;6.622;2022-07-23T15:34:08;4.15;;;2.60;;
14203;SDS011;7185;51.854;6.622;2022-07-23T15:36:40;6.47;;;2.28;;